sensor_id;sensor_type;location;lat;lon;timestamp;P1;durP1;ratioP1;P2;durP2;ratioP2
15271;SDS011;7737;51.578;7.268;2023-05-10T00:00:23;7.90;;;7.10;;
15271;SDS011;7737;51.578;7.268;2023-05-10T00:02:50;7.75;;;7.10;;
15271;SDS011;7737;51.578;7.268;2023-05-10T00:05:16;8.32;;;7.53;;
15271;SDS011;7737;51.578;7.268;2023-05-10T00:07:43;8.80;;;7.55;;
15271;SDS011;7737;51.578;7.268;2023-05-10T00:10:10;8.35;;;7.57;;
15271;SDS011;7737;51.578;7.268;2023-05-10T00:12:38;9.00;;;8.20;;
15271;SDS011;7737;51.578;7.268;2023-05-10T00:15:05;8.55;;;7.70;;
15271;SDS011;7737;51.578;7.268;2023-05-10T00:17:33;9.68;;;7.63;;
15271;SDS011;7737;51.578;7.268;2023-05-10T00:19:59;8.88;;;7.97;;
15271;SDS011;7737;51.578;7.268;2023-05-10T00:22:26;8.48;;;7.60;;
15271;SDS011;7737;51.578;7.268;2023-05-10T00:24:52;7.38;;;6.68;;
15271;SDS011;7737;51.578;7.268;2023-05-10T00:27:19;7.80;;;7.03;;
15271;SDS011;7737;51.578;7.268;2023-05-10T00:29:47;9.13;;;8.00;;
15271;SDS011;7737;51.578;7.268;2023-05-10T00:32:13;7.90;;;7.20;;
15271;SDS011;7737;51.578;7.268;2023-05-10T00:34:40;7.57;;;6.88;;
15271;SDS011;7737;51.578;7.268;2023-05-10T00:37:06;7.97;;;7.15;;
15271;SDS011;7737;51.578;7.268;2023-05-10T00:39:33;8.73;;;6.68;;
15271;SDS011;7737;51.578;7.268;2023-05-10T00:41:59;8.27;;;7.00;;
15271;SDS011;7737;51.578;7.268;2023-05-10T00:44:26;6.65;;;5.95;;
15271;SDS011;7737;51.578;7.268;2023-05-10T00:46:54;6.95;;;6.35;;
15271;SDS011;7737;51.578;7.268;2023-05-10T00:49:21;7.45;;;6.55;;
15271;SDS011;7737;51.578;7.268;2023-05-10T00:51:48;7.28;;;6.15;;
15271;SDS011;7737;51.578;7.268;2023-05-10T00:54:15;7.63;;;6.80;;
15271;SDS011;7737;51.578;7.268;2023-05-10T00:56:42;7.68;;;6.88;;
15271;SDS011;7737;51.578;7.268;2023-05-10T00:59:13;8.65;;;6.85;;
15271;SDS011;7737;51.578;7.268;2023-05-10T01:01:40;6.75;;;6.05;;
15271;SDS011;7737;51.578;7.268;2023-05-10T01:04:08;9.43;;;7.65;;
15271;SDS011;7737;51.578;7.268;2023-05-10T01:06:36;8.35;;;7.18;;
15271;SDS011;7737;51.578;7.268;2023-05-10T01:09:02;7.63;;;6.57;;
15271;SDS011;7737;51.578;7.268;2023-05-10T01:11:29;9.43;;;7.95;;
15271;SDS011;7737;51.578;7.268;2023-05-10T01:13:56;12.10;;;9.18;;
15271;SDS011;7737;51.578;7.268;2023-05-10T01:16:23;14.40;;;9.57;;
15271;SDS011;7737;51.578;7.268;2023-05-10T01:18:50;10.68;;;8.95;;
15271;SDS011;7737;51.578;7.268;2023-05-10T01:21:22;13.20;;;9.82;;
15271;SDS011;7737;51.578;7.268;2023-05-10T01:24:09;9.52;;;8.52;;
15271;SDS011;7737;51.578;7.268;2023-05-10T01:27:00;9.20;;;8.13;;
15271;SDS011;7737;51.578;7.268;2023-05-10T01:29:47;11.48;;;8.30;;
15271;SDS011;7737;51.578;7.268;2023-05-10T01:32:31;8.98;;;7.72;;
15271;SDS011;7737;51.578;7.268;2023-05-10T01:35:03;9.57;;;7.80;;
15271;SDS011;7737;51.578;7.268;2023-05-10T01:37:38;9.73;;;8.40;;
15271;SDS011;7737;51.578;7.268;2023-05-10T01:40:10;9.15;;;8.18;;
15271;SDS011;7737;51.578;7.268;2023-05-10T01:42:46;8.27;;;7.28;;
15271;SDS011;7737;51.578;7.268;2023-05-10T01:45:18;7.40;;;6.50;;
15271;SDS011;7737;51.578;7.268;2023-05-10T01:47:53;7.70;;;6.82;;
15271;SDS011;7737;51.578;7.268;2023-05-10T01:50:24;6.93;;;6.22;;
15271;SDS011;7737;51.578;7.268;2023-05-10T01:52:56;8.43;;;6.45;;
15271;SDS011;7737;51.578;7.268;2023-05-10T01:55:25;7.13;;;5.95;;
15271;SDS011;7737;51.578;7.268;2023-05-10T01:57:56;6.47;;;5.88;;
15271;SDS011;7737;51.578;7.268;2023-05-10T02:00:27;6.75;;;6.00;;
15271;SDS011;7737;51.578;7.268;2023-05-10T02:02:57;6.30;;;5.22;;
15271;SDS011;7737;51.578;7.268;2023-05-10T02:05:26;6.22;;;5.32;;
15271;SDS011;7737;51.578;7.268;2023-05-10T02:07:55;5.80;;;4.50;;
15271;SDS011;7737;51.578;7.268;2023-05-10T02:10:23;4.32;;;3.70;;
15271;SDS011;7737;51.578;7.268;2023-05-10T02:12:50;3.80;;;3.40;;
15271;SDS011;7737;51.578;7.268;2023-05-10T02:15:20;3.40;;;3.10;;
15271;SDS011;7737;51.578;7.268;2023-05-10T02:17:50;4.03;;;3.15;;
15271;SDS011;7737;51.578;7.268;2023-05-10T02:20:19;3.45;;;2.75;;
15271;SDS011;7737;51.578;7.268;2023-05-10T02:22:48;3.15;;;2.85;;
15271;SDS011;7737;51.578;7.268;2023-05-10T02:25:17;2.85;;;2.65;;
15271;SDS011;7737;51.578;7.268;2023-05-10T02:27:45;3.20;;;2.80;;
15271;SDS011;7737;51.578;7.268;2023-05-10T02:30:13;4.60;;;3.05;;
15271;SDS011;7737;51.578;7.268;2023-05-10T02:32:40;3.42;;;3.10;;
15271;SDS011;7737;51.578;7.268;2023-05-10T02:35:08;3.92;;;2.95;;
15271;SDS011;7737;51.578;7.268;2023-05-10T02:37:38;3.60;;;3.17;;
15271;SDS011;7737;51.578;7.268;2023-05-10T02:40:06;4.35;;;3.38;;
15271;SDS011;7737;51.578;7.268;2023-05-10T02:42:35;3.72;;;3.30;;
15271;SDS011;7737;51.578;7.268;2023-05-10T02:45:05;3.70;;;3.20;;
15271;SDS011;7737;51.578;7.268;2023-05-10T02:47:36;2.90;;;2.70;;
15271;SDS011;7737;51.578;7.268;2023-05-10T02:50:03;6.35;;;3.50;;
15271;SDS011;7737;51.578;7.268;2023-05-10T02:52:36;5.25;;;3.35;;
15271;SDS011;7737;51.578;7.268;2023-05-10T02:55:09;3.60;;;3.28;;
15271;SDS011;7737;51.578;7.268;2023-05-10T02:57:41;5.60;;;3.53;;
15271;SDS011;7737;51.578;7.268;2023-05-10T03:00:12;3.83;;;3.33;;
15271;SDS011;7737;51.578;7.268;2023-05-10T03:02:39;4.07;;;3.72;;
15271;SDS011;7737;51.578;7.268;2023-05-10T03:05:05;5.47;;;4.97;;
15271;SDS011;7737;51.578;7.268;2023-05-10T03:07:32;4.25;;;3.85;;
15271;SDS011;7737;51.578;7.268;2023-05-10T03:10:00;4.28;;;3.88;;
15271;SDS011;7737;51.578;7.268;2023-05-10T03:12:31;4.72;;;3.92;;
15271;SDS011;7737;51.578;7.268;2023-05-10T03:15:09;4.40;;;4.00;;
15271;SDS011;7737;51.578;7.268;2023-05-10T03:17:41;4.85;;;4.35;;
15271;SDS011;7737;51.578;7.268;2023-05-10T03:20:16;6.30;;;4.78;;
15271;SDS011;7737;51.578;7.268;2023-05-10T03:22:49;6.18;;;5.38;;
15271;SDS011;7737;51.578;7.268;2023-05-10T03:25:20;8.82;;;6.72;;
15271;SDS011;7737;51.578;7.268;2023-05-10T03:27:48;7.60;;;6.80;;
15271;SDS011;7737;51.578;7.268;2023-05-10T03:30:16;8.70;;;7.18;;
15271;SDS011;7737;51.578;7.268;2023-05-10T03:32:43;9.60;;;8.23;;
15271;SDS011;7737;51.578;7.268;2023-05-10T03:35:10;10.68;;;8.65;;
15271;SDS011;7737;51.578;7.268;2023-05-10T03:37:39;10.00;;;8.75;;
15271;SDS011;7737;51.578;7.268;2023-05-10T03:40:06;10.88;;;8.98;;
15271;SDS011;7737;51.578;7.268;2023-05-10T03:42:35;12.13;;;9.73;;
15271;SDS011;7737;51.578;7.268;2023-05-10T03:45:01;13.90;;;10.18;;
15271;SDS011;7737;51.578;7.268;2023-05-10T03:47:28;12.68;;;10.20;;
15271;SDS011;7737;51.578;7.268;2023-05-10T03:49:55;13.60;;;10.88;;
15271;SDS011;7737;51.578;7.268;2023-05-10T03:52:22;15.35;;;10.75;;
15271;SDS011;7737;51.578;7.268;2023-05-10T03:54:48;16.40;;;10.88;;
15271;SDS011;7737;51.578;7.268;2023-05-10T03:57:15;18.23;;;12.32;;
15271;SDS011;7737;51.578;7.268;2023-05-10T03:59:43;15.57;;;11.23;;
15271;SDS011;7737;51.578;7.268;2023-05-10T04:02:10;18.27;;;11.80;;
15271;SDS011;7737;51.578;7.268;2023-05-10T04:04:36;16.98;;;11.98;;
15271;SDS011;7737;51.578;7.268;2023-05-10T04:07:03;21.55;;;13.52;;
15271;SDS011;7737;51.578;7.268;2023-05-10T04:09:30;17.00;;;12.10;;
15271;SDS011;7737;51.578;7.268;2023-05-10T04:11:58;20.17;;;14.82;;
15271;SDS011;7737;51.578;7.268;2023-05-10T04:14:25;20.92;;;15.85;;
15271;SDS011;7737;51.578;7.268;2023-05-10T04:16:53;22.13;;;15.98;;
15271;SDS011;7737;51.578;7.268;2023-05-10T04:19:20;21.80;;;16.10;;
15271;SDS011;7737;51.578;7.268;2023-05-10T04:21:46;23.73;;;16.42;;
15271;SDS011;7737;51.578;7.268;2023-05-10T04:24:13;22.77;;;17.10;;
15271;SDS011;7737;51.578;7.268;2023-05-10T04:26:39;25.40;;;18.20;;
15271;SDS011;7737;51.578;7.268;2023-05-10T04:29:06;27.38;;;18.70;;
15271;SDS011;7737;51.578;7.268;2023-05-10T04:31:32;25.08;;;18.13;;
15271;SDS011;7737;51.578;7.268;2023-05-10T04:34:02;31.42;;;20.00;;
15271;SDS011;7737;51.578;7.268;2023-05-10T04:36:29;28.92;;;20.17;;
15271;SDS011;7737;51.578;7.268;2023-05-10T04:38:57;26.98;;;19.45;;
15271;SDS011;7737;51.578;7.268;2023-05-10T04:41:23;30.70;;;20.42;;
15271;SDS011;7737;51.578;7.268;2023-05-10T04:43:50;27.60;;;19.30;;
15271;SDS011;7737;51.578;7.268;2023-05-10T04:46:17;30.45;;;20.35;;
15271;SDS011;7737;51.578;7.268;2023-05-10T04:48:43;25.48;;;19.40;;
15271;SDS011;7737;51.578;7.268;2023-05-10T04:51:12;32.55;;;22.33;;
15271;SDS011;7737;51.578;7.268;2023-05-10T04:53:38;32.45;;;22.58;;
15271;SDS011;7737;51.578;7.268;2023-05-10T04:56:05;33.72;;;22.98;;
15271;SDS011;7737;51.578;7.268;2023-05-10T04:58:32;41.80;;;26.27;;
15271;SDS011;7737;51.578;7.268;2023-05-10T05:01:04;39.72;;;25.83;;
15271;SDS011;7737;51.578;7.268;2023-05-10T05:03:31;36.58;;;25.23;;
15271;SDS011;7737;51.578;7.268;2023-05-10T05:05:58;34.95;;;23.30;;
15271;SDS011;7737;51.578;7.268;2023-05-10T05:08:26;47.55;;;29.20;;
15271;SDS011;7737;51.578;7.268;2023-05-10T05:10:52;46.58;;;28.95;;
15271;SDS011;7737;51.578;7.268;2023-05-10T05:13:19;49.50;;;30.20;;
15271;SDS011;7737;51.578;7.268;2023-05-10T05:15:46;42.45;;;27.60;;
15271;SDS011;7737;51.578;7.268;2023-05-10T05:18:12;49.63;;;30.10;;
15271;SDS011;7737;51.578;7.268;2023-05-10T05:20:39;47.45;;;30.45;;
15271;SDS011;7737;51.578;7.268;2023-05-10T05:23:05;41.80;;;28.45;;
15271;SDS011;7737;51.578;7.268;2023-05-10T05:25:33;45.85;;;29.63;;
15271;SDS011;7737;51.578;7.268;2023-05-10T05:28:00;45.70;;;29.92;;
15271;SDS011;7737;51.578;7.268;2023-05-10T05:30:27;43.13;;;29.27;;
15271;SDS011;7737;51.578;7.268;2023-05-10T05:32:53;48.28;;;31.90;;
15271;SDS011;7737;51.578;7.268;2023-05-10T05:35:20;52.28;;;32.20;;
15271;SDS011;7737;51.578;7.268;2023-05-10T05:37:47;47.90;;;31.25;;
15271;SDS011;7737;51.578;7.268;2023-05-10T05:40:13;52.97;;;33.78;;
15271;SDS011;7737;51.578;7.268;2023-05-10T05:42:41;55.15;;;34.58;;
15271;SDS011;7737;51.578;7.268;2023-05-10T05:45:08;58.40;;;35.50;;
15271;SDS011;7737;51.578;7.268;2023-05-10T05:47:37;47.63;;;31.17;;
15271;SDS011;7737;51.578;7.268;2023-05-10T05:50:04;55.65;;;33.38;;
15271;SDS011;7737;51.578;7.268;2023-05-10T05:52:31;48.22;;;30.48;;
15271;SDS011;7737;51.578;7.268;2023-05-10T05:54:58;54.50;;;34.55;;
15271;SDS011;7737;51.578;7.268;2023-05-10T05:57:25;52.55;;;34.00;;
15271;SDS011;7737;51.578;7.268;2023-05-10T05:59:53;51.33;;;32.38;;
15271;SDS011;7737;51.578;7.268;2023-05-10T06:02:20;52.15;;;33.92;;
15271;SDS011;7737;51.578;7.268;2023-05-10T06:04:46;46.92;;;31.63;;
15271;SDS011;7737;51.578;7.268;2023-05-10T06:07:13;49.60;;;31.92;;
15271;SDS011;7737;51.578;7.268;2023-05-10T06:09:39;49.55;;;33.40;;
15271;SDS011;7737;51.578;7.268;2023-05-10T06:12:06;48.08;;;31.58;;
15271;SDS011;7737;51.578;7.268;2023-05-10T06:14:32;48.47;;;32.70;;
15271;SDS011;7737;51.578;7.268;2023-05-10T06:17:00;49.20;;;32.20;;
15271;SDS011;7737;51.578;7.268;2023-05-10T06:19:30;48.53;;;31.25;;
15271;SDS011;7737;51.578;7.268;2023-05-10T06:21:56;49.80;;;33.15;;
15271;SDS011;7737;51.578;7.268;2023-05-10T06:24:23;46.60;;;31.42;;
15271;SDS011;7737;51.578;7.268;2023-05-10T06:26:49;45.97;;;31.23;;
15271;SDS011;7737;51.578;7.268;2023-05-10T06:29:16;45.15;;;31.10;;
15271;SDS011;7737;51.578;7.268;2023-05-10T06:31:43;42.88;;;30.98;;
15271;SDS011;7737;51.578;7.268;2023-05-10T06:34:11;43.25;;;29.98;;
15271;SDS011;7737;51.578;7.268;2023-05-10T06:36:38;43.08;;;30.48;;
15271;SDS011;7737;51.578;7.268;2023-05-10T06:39:05;40.58;;;28.92;;
15271;SDS011;7737;51.578;7.268;2023-05-10T06:41:32;47.70;;;32.00;;
15271;SDS011;7737;51.578;7.268;2023-05-10T06:43:58;43.53;;;30.20;;
15271;SDS011;7737;51.578;7.268;2023-05-10T06:46:25;43.90;;;30.33;;
15271;SDS011;7737;51.578;7.268;2023-05-10T06:48:51;45.25;;;31.45;;
15271;SDS011;7737;51.578;7.268;2023-05-10T06:51:20;39.33;;;29.30;;
15271;SDS011;7737;51.578;7.268;2023-05-10T06:53:47;37.50;;;28.40;;
15271;SDS011;7737;51.578;7.268;2023-05-10T06:56:13;41.28;;;30.00;;
15271;SDS011;7737;51.578;7.268;2023-05-10T06:58:40;37.65;;;29.10;;
15271;SDS011;7737;51.578;7.268;2023-05-10T07:01:06;40.22;;;30.40;;
15271;SDS011;7737;51.578;7.268;2023-05-10T07:03:33;37.45;;;29.42;;
15271;SDS011;7737;51.578;7.268;2023-05-10T07:06:00;38.28;;;29.85;;
15271;SDS011;7737;51.578;7.268;2023-05-10T07:08:30;36.88;;;29.40;;
15271;SDS011;7737;51.578;7.268;2023-05-10T07:11:00;40.55;;;30.95;;
15271;SDS011;7737;51.578;7.268;2023-05-10T07:13:28;40.70;;;32.25;;
15271;SDS011;7737;51.578;7.268;2023-05-10T07:15:55;41.15;;;33.58;;
15271;SDS011;7737;51.578;7.268;2023-05-10T07:18:21;44.88;;;35.58;;
15271;SDS011;7737;51.578;7.268;2023-05-10T07:20:48;47.17;;;36.00;;
15271;SDS011;7737;51.578;7.268;2023-05-10T07:23:14;43.00;;;34.55;;
15271;SDS011;7737;51.578;7.268;2023-05-10T07:25:45;46.35;;;36.38;;
15271;SDS011;7737;51.578;7.268;2023-05-10T07:28:12;45.08;;;36.78;;
15271;SDS011;7737;51.578;7.268;2023-05-10T07:30:39;42.67;;;34.80;;
15271;SDS011;7737;51.578;7.268;2023-05-10T07:33:05;35.83;;;31.58;;
15271;SDS011;7737;51.578;7.268;2023-05-10T07:35:32;43.53;;;35.08;;
15271;SDS011;7737;51.578;7.268;2023-05-10T07:37:59;42.30;;;33.95;;
15271;SDS011;7737;51.578;7.268;2023-05-10T07:40:25;43.55;;;36.17;;
15271;SDS011;7737;51.578;7.268;2023-05-10T07:42:53;47.05;;;37.25;;
15271;SDS011;7737;51.578;7.268;2023-05-10T07:45:20;44.85;;;35.60;;
15271;SDS011;7737;51.578;7.268;2023-05-10T07:47:48;44.45;;;37.58;;
15271;SDS011;7737;51.578;7.268;2023-05-10T07:50:14;44.30;;;36.45;;
15271;SDS011;7737;51.578;7.268;2023-05-10T07:52:41;49.30;;;40.38;;
15271;SDS011;7737;51.578;7.268;2023-05-10T07:55:08;47.40;;;40.58;;
15271;SDS011;7737;51.578;7.268;2023-05-10T07:57:35;51.38;;;40.63;;
15271;SDS011;7737;51.578;7.268;2023-05-10T08:00:04;50.92;;;41.63;;
15271;SDS011;7737;51.578;7.268;2023-05-10T08:02:31;49.22;;;39.85;;
15271;SDS011;7737;51.578;7.268;2023-05-10T08:04:58;51.38;;;41.67;;
15271;SDS011;7737;51.578;7.268;2023-05-10T08:07:25;51.97;;;41.85;;
15271;SDS011;7737;51.578;7.268;2023-05-10T08:09:51;47.17;;;40.42;;
15271;SDS011;7737;51.578;7.268;2023-05-10T08:12:18;46.72;;;39.17;;
15271;SDS011;7737;51.578;7.268;2023-05-10T08:14:45;51.83;;;41.50;;
15271;SDS011;7737;51.578;7.268;2023-05-10T08:17:13;50.15;;;40.80;;
15271;SDS011;7737;51.578;7.268;2023-05-10T08:19:39;47.17;;;39.00;;
15271;SDS011;7737;51.578;7.268;2023-05-10T08:22:06;46.72;;;38.97;;
15271;SDS011;7737;51.578;7.268;2023-05-10T08:24:32;45.50;;;34.75;;
15271;SDS011;7737;51.578;7.268;2023-05-10T08:27:03;40.05;;;32.47;;
15271;SDS011;7737;51.578;7.268;2023-05-10T08:29:29;37.70;;;31.75;;
15271;SDS011;7737;51.578;7.268;2023-05-10T08:31:56;38.72;;;32.72;;
15271;SDS011;7737;51.578;7.268;2023-05-10T08:34:24;37.95;;;30.98;;
15271;SDS011;7737;51.578;7.268;2023-05-10T08:36:51;38.53;;;31.98;;
15271;SDS011;7737;51.578;7.268;2023-05-10T08:39:17;40.00;;;33.70;;
15271;SDS011;7737;51.578;7.268;2023-05-10T08:41:44;42.08;;;34.83;;
15271;SDS011;7737;51.578;7.268;2023-05-10T08:44:12;38.72;;;34.42;;
15271;SDS011;7737;51.578;7.268;2023-05-10T08:46:41;44.85;;;36.20;;
15271;SDS011;7737;51.578;7.268;2023-05-10T08:49:13;41.00;;;34.92;;
15271;SDS011;7737;51.578;7.268;2023-05-10T08:51:47;38.42;;;33.75;;
15271;SDS011;7737;51.578;7.268;2023-05-10T08:54:16;41.55;;;33.35;;
15271;SDS011;7737;51.578;7.268;2023-05-10T08:56:42;39.28;;;29.75;;
15271;SDS011;7737;51.578;7.268;2023-05-10T08:59:09;37.92;;;29.27;;
15271;SDS011;7737;51.578;7.268;2023-05-10T09:01:37;35.35;;;29.25;;
15271;SDS011;7737;51.578;7.268;2023-05-10T09:04:04;37.95;;;30.70;;
15271;SDS011;7737;51.578;7.268;2023-05-10T09:06:31;36.00;;;28.15;;
15271;SDS011;7737;51.578;7.268;2023-05-10T09:08:59;35.70;;;27.80;;
15271;SDS011;7737;51.578;7.268;2023-05-10T09:11:28;34.42;;;27.10;;
15271;SDS011;7737;51.578;7.268;2023-05-10T09:13:55;33.45;;;26.25;;
15271;SDS011;7737;51.578;7.268;2023-05-10T09:16:22;30.65;;;24.73;;
15271;SDS011;7737;51.578;7.268;2023-05-10T09:18:49;27.55;;;21.45;;
15271;SDS011;7737;51.578;7.268;2023-05-10T09:21:16;23.73;;;19.17;;
15271;SDS011;7737;51.578;7.268;2023-05-10T09:23:42;23.30;;;18.85;;
15271;SDS011;7737;51.578;7.268;2023-05-10T09:26:10;22.25;;;17.45;;
15271;SDS011;7737;51.578;7.268;2023-05-10T09:28:49;23.10;;;18.15;;
15271;SDS011;7737;51.578;7.268;2023-05-10T09:31:17;22.67;;;18.08;;
15271;SDS011;7737;51.578;7.268;2023-05-10T09:33:43;21.95;;;19.40;;
15271;SDS011;7737;51.578;7.268;2023-05-10T09:36:11;24.45;;;18.17;;
15271;SDS011;7737;51.578;7.268;2023-05-10T09:38:44;22.98;;;18.60;;
15271;SDS011;7737;51.578;7.268;2023-05-10T09:41:16;23.40;;;17.13;;
15271;SDS011;7737;51.578;7.268;2023-05-10T09:43:44;20.63;;;17.75;;
15271;SDS011;7737;51.578;7.268;2023-05-10T09:46:10;20.52;;;16.55;;
15271;SDS011;7737;51.578;7.268;2023-05-10T09:48:39;18.60;;;15.68;;
15271;SDS011;7737;51.578;7.268;2023-05-10T09:51:09;19.60;;;15.38;;
15271;SDS011;7737;51.578;7.268;2023-05-10T09:53:35;17.60;;;14.63;;
15271;SDS011;7737;51.578;7.268;2023-05-10T09:56:02;22.20;;;16.45;;
15271;SDS011;7737;51.578;7.268;2023-05-10T09:58:30;17.27;;;15.23;;
15271;SDS011;7737;51.578;7.268;2023-05-10T10:00:57;20.10;;;15.57;;
15271;SDS011;7737;51.578;7.268;2023-05-10T10:03:24;16.33;;;14.63;;
15271;SDS011;7737;51.578;7.268;2023-05-10T10:05:50;17.95;;;15.68;;
15271;SDS011;7737;51.578;7.268;2023-05-10T10:08:18;18.67;;;16.85;;
15271;SDS011;7737;51.578;7.268;2023-05-10T10:10:45;18.27;;;16.42;;
15271;SDS011;7737;51.578;7.268;2023-05-10T10:13:13;19.35;;;17.35;;
15271;SDS011;7737;51.578;7.268;2023-05-10T10:15:41;17.40;;;15.60;;
15271;SDS011;7737;51.578;7.268;2023-05-10T10:18:08;15.77;;;14.15;;
15271;SDS011;7737;51.578;7.268;2023-05-10T10:20:39;16.65;;;14.55;;
15271;SDS011;7737;51.578;7.268;2023-05-10T10:23:07;17.00;;;14.15;;
15271;SDS011;7737;51.578;7.268;2023-05-10T10:25:34;17.75;;;15.00;;
15271;SDS011;7737;51.578;7.268;2023-05-10T10:28:10;21.17;;;17.88;;
15271;SDS011;7737;51.578;7.268;2023-05-10T10:30:49;22.45;;;19.17;;
15271;SDS011;7737;51.578;7.268;2023-05-10T10:33:29;24.92;;;20.50;;
15271;SDS011;7737;51.578;7.268;2023-05-10T10:36:05;23.45;;;20.98;;
15271;SDS011;7737;51.578;7.268;2023-05-10T10:41:29;23.73;;;21.15;;
15271;SDS011;7737;51.578;7.268;2023-05-10T10:47:01;27.33;;;21.92;;
15271;SDS011;7737;51.578;7.268;2023-05-10T10:49:31;25.73;;;21.10;;
15271;SDS011;7737;51.578;7.268;2023-05-10T10:54:59;26.52;;;21.10;;
15271;SDS011;7737;51.578;7.268;2023-05-10T10:57:27;21.55;;;19.25;;
15271;SDS011;7737;51.578;7.268;2023-05-10T11:00:17;23.75;;;19.30;;
15271;SDS011;7737;51.578;7.268;2023-05-10T11:02:47;22.23;;;18.73;;
15271;SDS011;7737;51.578;7.268;2023-05-10T11:08:15;22.40;;;17.35;;
15271;SDS011;7737;51.578;7.268;2023-05-10T11:10:50;20.92;;;17.73;;
15271;SDS011;7737;51.578;7.268;2023-05-10T11:13:29;19.42;;;16.30;;
15271;SDS011;7737;51.578;7.268;2023-05-10T11:15:57;20.65;;;16.58;;
15271;SDS011;7737;51.578;7.268;2023-05-10T11:18:26;19.88;;;17.63;;
15271;SDS011;7737;51.578;7.268;2023-05-10T11:20:55;18.50;;;16.30;;
15271;SDS011;7737;51.578;7.268;2023-05-10T11:23:24;18.52;;;15.38;;
15271;SDS011;7737;51.578;7.268;2023-05-10T11:25:56;20.65;;;18.60;;
15271;SDS011;7737;51.578;7.268;2023-05-10T11:28:23;23.40;;;21.00;;
15271;SDS011;7737;51.578;7.268;2023-05-10T11:30:50;26.13;;;23.42;;
15271;SDS011;7737;51.578;7.268;2023-05-10T11:33:17;31.33;;;27.83;;
15271;SDS011;7737;51.578;7.268;2023-05-10T11:35:46;30.45;;;27.25;;
15271;SDS011;7737;51.578;7.268;2023-05-10T11:38:13;31.30;;;27.98;;
15271;SDS011;7737;51.578;7.268;2023-05-10T11:40:40;33.55;;;29.63;;
15271;SDS011;7737;51.578;7.268;2023-05-10T11:43:08;32.80;;;28.35;;
15271;SDS011;7737;51.578;7.268;2023-05-10T11:45:35;28.10;;;25.05;;
15271;SDS011;7737;51.578;7.268;2023-05-10T11:48:03;29.90;;;25.10;;
15271;SDS011;7737;51.578;7.268;2023-05-10T11:50:30;25.77;;;23.08;;
15271;SDS011;7737;51.578;7.268;2023-05-10T11:52:58;26.50;;;21.85;;
15271;SDS011;7737;51.578;7.268;2023-05-10T11:55:24;21.35;;;19.02;;
15271;SDS011;7737;51.578;7.268;2023-05-10T11:57:51;20.95;;;17.92;;
15271;SDS011;7737;51.578;7.268;2023-05-10T12:00:18;21.15;;;18.67;;
15271;SDS011;7737;51.578;7.268;2023-05-10T12:02:45;24.02;;;21.35;;
15271;SDS011;7737;51.578;7.268;2023-05-10T12:05:12;22.20;;;18.90;;
15271;SDS011;7737;51.578;7.268;2023-05-10T12:07:39;21.52;;;19.23;;
15271;SDS011;7737;51.578;7.268;2023-05-10T12:10:07;20.52;;;18.33;;
15271;SDS011;7737;51.578;7.268;2023-05-10T12:12:39;19.92;;;17.83;;
15271;SDS011;7737;51.578;7.268;2023-05-10T12:15:10;19.58;;;17.30;;
15271;SDS011;7737;51.578;7.268;2023-05-10T12:17:37;19.27;;;16.67;;
15271;SDS011;7737;51.578;7.268;2023-05-10T12:20:14;18.33;;;16.13;;
15271;SDS011;7737;51.578;7.268;2023-05-10T12:22:43;18.88;;;16.92;;
15271;SDS011;7737;51.578;7.268;2023-05-10T12:25:12;20.73;;;18.52;;
15271;SDS011;7737;51.578;7.268;2023-05-10T12:27:39;20.52;;;18.42;;
15271;SDS011;7737;51.578;7.268;2023-05-10T12:30:06;21.33;;;17.33;;
15271;SDS011;7737;51.578;7.268;2023-05-10T12:32:37;20.17;;;17.42;;
15271;SDS011;7737;51.578;7.268;2023-05-10T12:35:04;20.00;;;16.58;;
15271;SDS011;7737;51.578;7.268;2023-05-10T12:37:31;16.52;;;14.63;;
15271;SDS011;7737;51.578;7.268;2023-05-10T12:40:00;14.13;;;12.27;;
15271;SDS011;7737;51.578;7.268;2023-05-10T12:42:31;12.48;;;11.20;;
15271;SDS011;7737;51.578;7.268;2023-05-10T12:44:58;12.73;;;11.43;;
15271;SDS011;7737;51.578;7.268;2023-05-10T12:47:24;13.57;;;11.32;;
15271;SDS011;7737;51.578;7.268;2023-05-10T12:49:51;11.35;;;10.15;;
15271;SDS011;7737;51.578;7.268;2023-05-10T12:52:18;13.70;;;12.25;;
15271;SDS011;7737;51.578;7.268;2023-05-10T12:54:44;17.33;;;15.60;;
15271;SDS011;7737;51.578;7.268;2023-05-10T12:57:12;17.40;;;15.75;;
15271;SDS011;7737;51.578;7.268;2023-05-10T12:59:40;16.50;;;15.07;;
15271;SDS011;7737;51.578;7.268;2023-05-10T13:02:07;18.23;;;16.48;;
15271;SDS011;7737;51.578;7.268;2023-05-10T13:04:35;18.08;;;16.45;;
15271;SDS011;7737;51.578;7.268;2023-05-10T13:07:04;21.00;;;18.88;;
15271;SDS011;7737;51.578;7.268;2023-05-10T13:09:31;20.98;;;18.85;;
15271;SDS011;7737;51.578;7.268;2023-05-10T13:11:57;20.80;;;18.80;;
15271;SDS011;7737;51.578;7.268;2023-05-10T13:14:24;20.33;;;18.35;;
15271;SDS011;7737;51.578;7.268;2023-05-10T13:16:53;22.02;;;20.08;;
15271;SDS011;7737;51.578;7.268;2023-05-10T13:19:20;20.52;;;18.65;;
15271;SDS011;7737;51.578;7.268;2023-05-10T13:21:47;19.85;;;17.98;;
15271;SDS011;7737;51.578;7.268;2023-05-10T13:24:13;22.88;;;20.73;;
15271;SDS011;7737;51.578;7.268;2023-05-10T13:26:40;19.88;;;17.98;;
15271;SDS011;7737;51.578;7.268;2023-05-10T13:29:07;18.92;;;17.13;;
15271;SDS011;7737;51.578;7.268;2023-05-10T13:31:33;16.83;;;15.40;;
15271;SDS011;7737;51.578;7.268;2023-05-10T13:34:02;16.60;;;15.13;;
15271;SDS011;7737;51.578;7.268;2023-05-10T13:36:28;12.95;;;11.80;;
15271;SDS011;7737;51.578;7.268;2023-05-10T13:38:55;11.15;;;10.07;;
15271;SDS011;7737;51.578;7.268;2023-05-10T13:41:22;10.40;;;9.40;;
15271;SDS011;7737;51.578;7.268;2023-05-10T13:43:49;11.13;;;8.73;;
15271;SDS011;7737;51.578;7.268;2023-05-10T13:46:15;9.60;;;8.40;;
15271;SDS011;7737;51.578;7.268;2023-05-10T13:48:42;9.98;;;8.85;;
15271;SDS011;7737;51.578;7.268;2023-05-10T13:51:10;9.07;;;7.32;;
15271;SDS011;7737;51.578;7.268;2023-05-10T13:53:36;8.23;;;7.43;;
15271;SDS011;7737;51.578;7.268;2023-05-10T13:56:03;8.18;;;6.63;;
15271;SDS011;7737;51.578;7.268;2023-05-10T13:58:30;6.80;;;6.10;;
15271;SDS011;7737;51.578;7.268;2023-05-10T14:00:57;6.22;;;5.60;;
15271;SDS011;7737;51.578;7.268;2023-05-10T14:03:23;6.53;;;5.93;;
15271;SDS011;7737;51.578;7.268;2023-05-10T14:05:50;6.03;;;5.07;;
15271;SDS011;7737;51.578;7.268;2023-05-10T14:08:18;6.13;;;5.03;;
15271;SDS011;7737;51.578;7.268;2023-05-10T14:10:45;5.90;;;4.57;;
15271;SDS011;7737;51.578;7.268;2023-05-10T14:13:12;5.50;;;4.47;;
15271;SDS011;7737;51.578;7.268;2023-05-10T14:15:38;5.35;;;4.85;;
15271;SDS011;7737;51.578;7.268;2023-05-10T14:18:05;8.48;;;5.10;;
15271;SDS011;7737;51.578;7.268;2023-05-10T14:20:31;5.82;;;4.75;;
15271;SDS011;7737;51.578;7.268;2023-05-10T14:22:58;5.30;;;4.38;;
15271;SDS011;7737;51.578;7.268;2023-05-10T14:25:26;6.50;;;4.85;;
15271;SDS011;7737;51.578;7.268;2023-05-10T14:27:53;6.55;;;4.93;;
15271;SDS011;7737;51.578;7.268;2023-05-10T14:30:20;5.25;;;4.75;;
15271;SDS011;7737;51.578;7.268;2023-05-10T14:32:46;5.43;;;4.70;;
15271;SDS011;7737;51.578;7.268;2023-05-10T14:35:13;6.45;;;5.22;;
15271;SDS011;7737;51.578;7.268;2023-05-10T14:37:40;7.50;;;5.35;;
15271;SDS011;7737;51.578;7.268;2023-05-10T14:40:07;7.78;;;5.53;;
15271;SDS011;7737;51.578;7.268;2023-05-10T14:42:36;7.10;;;5.90;;
15271;SDS011;7737;51.578;7.268;2023-05-10T14:45:03;6.75;;;5.53;;
15271;SDS011;7737;51.578;7.268;2023-05-10T14:47:30;6.28;;;5.68;;
15271;SDS011;7737;51.578;7.268;2023-05-10T14:49:57;6.07;;;5.30;;
15271;SDS011;7737;51.578;7.268;2023-05-10T14:52:23;6.45;;;5.40;;
15271;SDS011;7737;51.578;7.268;2023-05-10T14:54:50;6.82;;;5.53;;
15271;SDS011;7737;51.578;7.268;2023-05-10T14:57:17;6.35;;;5.65;;
15271;SDS011;7737;51.578;7.268;2023-05-10T14:59:45;6.25;;;5.47;;